Sainte-Agathe, Canada
Current Conditions -  °F | °C
As of 9:18 PM on Saturday 22 Nov 2014 (Local Time) from CYMX Reporting Station
Freezing Rain Freezing Rain  
Wind Chill: 29°   Ceiling: 300
Heat Index: 34°   Visibility: 2mi
Dew Point: 32°   Wind: 6mph
Humidity: 93%   Direction: 210°SSW
Pressure: 29.87"   Gusts: NA
Location:  46.03°N, 74.28°W
Report Text: CYMX 230218Z 21005KT 2SM -FZRA BR OVC003 01/M00 A2987 RMK FG4SF4 CIG VRB 2-4 VIS VRB 1-3 SLP120
Loading
Personal Weather Stations






























Interactive Weather Map New forecast layout! Learn more

10-Day Weather Forecast

Advertisements
Track Severe Weather on mobile